Terminal Aerodrome Forecast
Issued by NWS Cleveland, OH

Home | Current Version | Previous Version | Text Only | Print | Product List | Glossary Off
Versions: 1 2 3 4 5 6 7 8 9 10 11 12 13 14 15 16 17 18 19

049
FTUS41 KCLE 191522 CCA
TAFCAK
TAF COR
KCAK 191522Z 1915/2012 17012KT P6SM SCT018 OVC100
     FM191600 18012G20KT P6SM BKN022
     FM191800 19012G20KT P6SM -SHRA VCTS OVC035CB
      TEMPO 1918/1921 1SM TSRA OVC015CB
     FM192300 22010KT P6SM -SHRA OVC025
     FM200400 29008KT P6SM OVC015=

USA.gov is the U.S. government's official web portal to all federal, state and local government web resources and services.